createdAt,value
2023-01-30T00:01:20.236Z,81.90
2023-01-30T00:03:47.485Z,82.00
2023-01-30T00:06:17.021Z,82.00
2023-01-30T00:08:44.802Z,81.90
2023-01-30T00:11:13.538Z,81.80
2023-01-30T00:13:41.932Z,82.00
2023-01-30T00:16:09.953Z,81.70
2023-01-30T00:18:38.648Z,81.50
2023-01-30T00:21:07.981Z,81.30
2023-01-30T00:23:36.404Z,81.20
2023-01-30T00:26:05.013Z,80.90
2023-01-30T00:28:32.804Z,80.70
2023-01-30T00:31:00.094Z,80.40
2023-01-30T00:33:28.000Z,80.30
2023-01-30T00:35:57.062Z,80.50
2023-01-30T00:38:24.867Z,80.60
2023-01-30T00:40:52.103Z,80.60
2023-01-30T00:43:39.284Z,80.60
2023-01-30T00:46:41.022Z,80.90
2023-01-30T00:49:08.290Z,81.10
2023-01-30T00:51:38.789Z,81.60
2023-01-30T00:54:06.176Z,82.10
2023-01-30T00:56:33.481Z,82.50
2023-01-30T00:59:00.966Z,82.00
2023-01-30T01:01:30.853Z,81.90
2023-01-30T01:03:58.067Z,81.90
2023-01-30T01:06:25.279Z,81.60
2023-01-30T01:08:58.718Z,81.70
2023-01-30T01:11:25.955Z,81.60
2023-01-30T01:14:01.546Z,81.50
2023-01-30T01:16:30.053Z,81.20
2023-01-30T01:18:59.427Z,81.20
2023-01-30T01:21:26.950Z,81.20
2023-01-30T01:23:59.390Z,81.30
2023-01-30T01:26:27.103Z,81.30
2023-01-30T01:28:56.057Z,81.50
2023-01-30T01:31:24.389Z,81.40
2023-01-30T01:33:52.363Z,81.50
2023-01-30T01:36:42.317Z,81.50
2023-01-30T01:39:15.050Z,81.60
2023-01-30T01:41:42.534Z,81.30
2023-01-30T01:44:14.296Z,80.90
2023-01-30T01:46:58.371Z,80.90
2023-01-30T01:49:35.314Z,81.00
2023-01-30T01:52:09.378Z,81.00
2023-01-30T01:54:47.229Z,81.10
2023-01-30T01:57:37.915Z,81.30
2023-01-30T02:00:16.563Z,81.00
2023-01-30T02:02:49.305Z,80.80
2023-01-30T02:05:20.370Z,81.00
2023-01-30T02:07:51.931Z,81.00
2023-01-30T02:10:26.812Z,81.10
2023-01-30T02:12:54.015Z,81.00
2023-01-30T02:15:22.420Z,81.30
2023-01-30T02:17:49.749Z,81.60
2023-01-30T02:20:38.005Z,81.90
2023-01-30T02:23:05.239Z,82.10
2023-01-30T02:26:00.642Z,81.90
2023-01-30T02:28:35.763Z,81.50
2023-01-30T02:31:26.858Z,81.50
2023-01-30T02:34:19.744Z,81.40
2023-01-30T02:36:52.312Z,81.40
2023-01-30T02:39:53.612Z,81.20
2023-01-30T02:42:32.205Z,81.10
2023-01-30T02:45:07.918Z,81.40
2023-01-30T02:47:39.383Z,81.60
2023-01-30T02:50:30.994Z,81.80
2023-01-30T02:52:58.529Z,81.60
2023-01-30T02:55:29.485Z,81.50
2023-01-30T02:57:57.771Z,81.30
2023-01-30T03:00:44.401Z,81.20
2023-01-30T03:03:59.145Z,81.20
2023-01-30T03:06:32.921Z,81.30
2023-01-30T03:09:14.489Z,81.40
2023-01-30T03:12:00.757Z,81.40
2023-01-30T03:15:09.871Z,81.40
2023-01-30T03:17:40.513Z,81.40
2023-01-30T03:20:08.415Z,81.30
2023-01-30T03:22:35.732Z,81.10
2023-01-30T03:25:03.068Z,81.00
2023-01-30T03:27:30.579Z,80.90
2023-01-30T03:29:57.808Z,80.80
2023-01-30T03:32:25.771Z,80.80
2023-01-30T03:34:53.046Z,80.90
2023-01-30T03:37:20.484Z,81.20
2023-01-30T03:39:47.787Z,81.30
2023-01-30T03:42:15.836Z,81.40
2023-01-30T03:44:43.352Z,81.60
2023-01-30T03:47:11.177Z,81.70
2023-01-30T03:49:38.689Z,81.70
2023-01-30T03:52:05.975Z,81.70
2023-01-30T03:54:33.254Z,81.50
2023-01-30T03:57:00.499Z,81.10
2023-01-30T03:59:27.796Z,80.90
2023-01-30T04:02:02.631Z,80.50
2023-01-30T04:04:30.208Z,80.50
2023-01-30T04:06:58.344Z,80.60
2023-01-30T04:09:26.305Z,80.40
2023-01-30T04:12:20.683Z,80.30
2023-01-30T04:14:54.357Z,80.20
2023-01-30T04:17:29.039Z,80.30
2023-01-30T04:20:15.107Z,80.40
2023-01-30T04:22:48.096Z,80.80
2023-01-30T04:25:17.006Z,80.80
2023-01-30T04:27:46.682Z,80.90
2023-01-30T04:30:30.348Z,81.00
2023-01-30T04:33:22.075Z,81.20
2023-01-30T04:35:58.971Z,81.30
2023-01-30T04:38:28.260Z,81.60
2023-01-30T04:40:57.154Z,81.70
2023-01-30T04:43:28.246Z,81.80
2023-01-30T04:45:55.818Z,82.20
2023-01-30T04:48:25.295Z,82.60
2023-01-30T04:50:54.785Z,82.70
2023-01-30T04:53:22.822Z,82.70
2023-01-30T04:55:50.367Z,82.60
2023-01-30T04:58:21.378Z,82.90
2023-01-30T05:00:50.104Z,83.20
2023-01-30T05:03:17.431Z,83.40
2023-01-30T05:05:48.127Z,83.40
2023-01-30T05:08:16.313Z,82.70
2023-01-30T05:10:46.608Z,82.50
2023-01-30T05:13:13.796Z,82.50
2023-01-30T05:15:41.068Z,82.70
2023-01-30T05:18:08.281Z,82.80
2023-01-30T05:20:35.508Z,83.20
2023-01-30T05:23:02.698Z,83.60
2023-01-30T05:25:30.068Z,84.30
2023-01-30T05:27:57.257Z,85.40
2023-01-30T05:30:24.510Z,86.30
2023-01-30T05:32:51.719Z,86.00
2023-01-30T05:35:19.278Z,85.80
2023-01-30T05:37:50.770Z,85.60
2023-01-30T05:40:18.627Z,85.60
2023-01-30T05:42:45.808Z,85.70
2023-01-30T05:45:13.128Z,85.70
2023-01-30T05:47:40.446Z,86.10
2023-01-30T05:50:08.117Z,86.40
2023-01-30T05:52:35.296Z,86.60
2023-01-30T05:55:02.494Z,87.10
2023-01-30T05:57:29.693Z,87.30
2023-01-30T05:59:56.907Z,87.40
2023-01-30T06:02:24.166Z,87.40
2023-01-30T06:04:51.403Z,87.70
2023-01-30T06:07:18.594Z,87.90
2023-01-30T06:09:45.795Z,88.00
2023-01-30T06:12:12.986Z,88.10
2023-01-30T06:14:40.310Z,88.20
2023-01-30T06:17:07.820Z,88.10
2023-01-30T06:19:36.355Z,88.00
2023-01-30T06:22:03.871Z,87.80
2023-01-30T06:24:31.146Z,87.60
2023-01-30T06:26:59.527Z,87.40
2023-01-30T06:29:26.784Z,87.30
2023-01-30T06:31:53.993Z,87.10
2023-01-30T06:34:21.265Z,86.90
2023-01-30T06:36:48.463Z,86.80
2023-01-30T06:39:16.660Z,86.70
2023-01-30T06:41:43.917Z,86.80
2023-01-30T06:44:11.289Z,86.50
2023-01-30T06:46:38.522Z,86.50
2023-01-30T06:49:05.709Z,86.50
2023-01-30T06:51:33.034Z,86.60
2023-01-30T06:54:00.228Z,86.60
2023-01-30T06:56:27.461Z,86.60
2023-01-30T06:58:54.826Z,86.50
2023-01-30T07:01:22.068Z,86.50
2023-01-30T07:03:49.317Z,86.30
2023-01-30T07:06:16.597Z,86.00
2023-01-30T07:08:44.421Z,85.80
2023-01-30T07:11:11.675Z,85.70
2023-01-30T07:13:38.952Z,85.50
2023-01-30T07:16:06.589Z,85.50
2023-01-30T07:18:33.866Z,85.50
2023-01-30T07:21:06.511Z,85.40
2023-01-30T07:23:34.316Z,85.30
2023-01-30T07:26:05.900Z,85.40
2023-01-30T07:28:35.143Z,85.40
2023-01-30T07:31:02.427Z,85.60
2023-01-30T07:33:29.915Z,85.60
2023-01-30T07:35:57.167Z,85.80
2023-01-30T07:38:24.402Z,86.00
2023-01-30T07:40:51.616Z,86.00
2023-01-30T07:43:19.100Z,86.10
2023-01-30T07:45:48.186Z,86.00
2023-01-30T07:48:18.028Z,86.10
2023-01-30T07:50:46.056Z,86.10
2023-01-30T07:53:15.967Z,86.30
2023-01-30T07:55:43.487Z,86.40
2023-01-30T07:58:15.923Z,86.50
2023-01-30T08:00:44.078Z,86.40
2023-01-30T08:03:16.431Z,86.30
2023-01-30T08:05:46.751Z,86.50
2023-01-30T08:08:14.569Z,86.60
2023-01-30T08:10:42.308Z,86.50
2023-01-30T08:13:09.599Z,86.30
2023-01-30T08:15:36.837Z,86.20
2023-01-30T08:18:04.117Z,86.10
2023-01-30T08:20:31.326Z,86.20
2023-01-30T08:22:59.604Z,86.10
2023-01-30T08:25:26.861Z,86.10
2023-01-30T08:27:54.498Z,86.00
2023-01-30T08:30:22.976Z,85.90
2023-01-30T08:32:50.283Z,85.60
2023-01-30T08:35:17.596Z,85.30
2023-01-30T08:37:44.791Z,85.30
2023-01-30T08:40:12.624Z,85.10
2023-01-30T08:42:39.895Z,84.80
2023-01-30T08:45:07.732Z,85.00
2023-01-30T08:47:35.579Z,84.80
2023-01-30T08:50:05.585Z,84.90
2023-01-30T08:52:34.880Z,84.80
2023-01-30T08:55:02.113Z,84.40
2023-01-30T08:57:32.478Z,84.20
2023-01-30T09:00:00.885Z,84.20
2023-01-30T09:02:28.180Z,84.10
2023-01-30T09:04:55.372Z,83.40
2023-01-30T09:07:22.600Z,83.00
2023-01-30T09:09:50.794Z,82.50
2023-01-30T09:12:18.029Z,82.60
2023-01-30T09:14:45.302Z,82.10
2023-01-30T09:17:12.729Z,81.20
2023-01-30T09:19:39.993Z,81.20
2023-01-30T09:22:07.819Z,81.10
2023-01-30T09:24:35.032Z,81.10
2023-01-30T09:27:02.388Z,80.40
2023-01-30T09:29:29.645Z,80.20
2023-01-30T09:31:56.920Z,79.50
2023-01-30T09:34:28.639Z,78.00
2023-01-30T09:37:06.138Z,76.70
2023-01-30T09:39:33.561Z,76.20
2023-01-30T09:42:30.351Z,76.30
2023-01-30T09:45:26.228Z,76.20
2023-01-30T09:48:25.005Z,75.80
2023-01-30T09:51:31.547Z,75.30
2023-01-30T09:54:22.156Z,76.20
2023-01-30T09:56:56.353Z,74.80
2023-01-30T09:59:30.411Z,74.50
2023-01-30T10:02:09.995Z,75.00
2023-01-30T10:04:55.129Z,75.60
2023-01-30T10:07:45.777Z,75.90
2023-01-30T10:10:25.015Z,75.70
2023-01-30T10:13:14.734Z,75.70
2023-01-30T10:15:52.024Z,74.50
2023-01-30T10:18:43.697Z,74.10
2023-01-30T10:21:31.219Z,73.80
2023-01-30T10:24:18.154Z,73.60
2023-01-30T10:26:46.674Z,73.10
2023-01-30T10:29:33.438Z,73.50
2023-01-30T10:32:14.889Z,74.10
2023-01-30T10:34:46.325Z,74.40
2023-01-30T10:37:27.444Z,74.20
2023-01-30T10:40:20.414Z,74.80
2023-01-30T10:43:15.224Z,74.00
2023-01-30T10:45:56.020Z,72.80
2023-01-30T10:48:50.289Z,70.70
2023-01-30T10:51:39.265Z,71.80
2023-01-30T10:54:32.748Z,71.00
2023-01-30T10:57:18.551Z,70.10
2023-01-30T11:00:05.438Z,69.00
2023-01-30T11:03:08.112Z,70.20
2023-01-30T11:05:40.488Z,69.60
2023-01-30T11:08:22.134Z,70.20
2023-01-30T11:10:49.903Z,70.70
2023-01-30T11:13:21.747Z,71.10
2023-01-30T11:15:52.549Z,71.30
2023-01-30T11:21:14.379Z,71.60
2023-01-30T11:23:43.030Z,71.30
2023-01-30T11:26:29.426Z,71.10
2023-01-30T11:28:59.174Z,71.00
2023-01-30T11:31:40.322Z,72.00
2023-01-30T11:34:19.917Z,72.00
2023-01-30T11:36:47.696Z,71.20
2023-01-30T11:39:18.639Z,69.20
2023-01-30T11:41:57.723Z,69.00
2023-01-30T11:44:36.246Z,67.20
2023-01-30T11:47:25.582Z,66.90
2023-01-30T11:49:58.869Z,67.60
2023-01-30T11:52:37.371Z,67.90
2023-01-30T11:55:12.465Z,68.60
2023-01-30T11:57:43.192Z,67.10
2023-01-30T12:00:22.187Z,66.80
2023-01-30T12:02:53.091Z,67.00
2023-01-30T12:05:36.929Z,65.90
2023-01-30T12:08:40.689Z,67.10
2023-01-30T12:11:45.175Z,65.40
2023-01-30T12:14:44.383Z,67.10
2023-01-30T12:17:21.490Z,68.20
2023-01-30T12:20:17.931Z,72.60
2023-01-30T12:23:03.214Z,75.80
2023-01-30T12:25:40.843Z,77.50
2023-01-30T12:28:32.144Z,77.60
2023-01-30T12:31:21.307Z,76.60
2023-01-30T12:33:49.200Z,75.30
2023-01-30T12:36:28.388Z,74.30
2023-01-30T12:39:39.281Z,74.50
2023-01-30T12:42:47.656Z,73.30
2023-01-30T12:45:24.978Z,71.80
2023-01-30T12:48:14.108Z,70.90
2023-01-30T12:51:13.606Z,68.90
2023-01-30T12:54:09.366Z,68.10
2023-01-30T12:56:59.863Z,66.70
2023-01-30T12:59:39.403Z,69.00
2023-01-30T13:02:26.435Z,72.60
2023-01-30T13:05:22.305Z,74.80
2023-01-30T13:08:00.173Z,75.30
2023-01-30T13:10:45.946Z,77.20
2023-01-30T13:13:42.969Z,78.90
2023-01-30T13:16:32.992Z,80.10
2023-01-30T13:19:07.087Z,80.70
2023-01-30T13:21:55.593Z,81.90
2023-01-30T13:24:38.344Z,81.40
2023-01-30T13:27:13.144Z,81.90
2023-01-30T13:29:41.260Z,82.70
2023-01-30T13:32:18.306Z,83.20
2023-01-30T13:34:47.945Z,83.40
2023-01-30T13:37:20.317Z,84.10
2023-01-30T13:40:13.460Z,84.10
2023-01-30T13:42:58.955Z,83.10
2023-01-30T13:45:29.332Z,83.70
2023-01-30T13:48:10.663Z,83.70
2023-01-30T13:51:18.909Z,82.60
2023-01-30T13:54:02.315Z,82.30
2023-01-30T13:56:56.425Z,82.50
2023-01-30T13:59:36.920Z,80.80
2023-01-30T14:02:04.210Z,80.60
2023-01-30T14:04:40.595Z,78.30
2023-01-30T14:07:25.937Z,76.20
2023-01-30T14:10:08.200Z,75.10
2023-01-30T14:12:50.775Z,76.10
2023-01-30T14:15:21.180Z,76.80
2023-01-30T14:17:57.930Z,77.60
2023-01-30T14:20:28.149Z,79.50
2023-01-30T14:22:58.310Z,80.70
2023-01-30T14:25:27.497Z,80.90
2023-01-30T14:28:16.668Z,81.50
2023-01-30T14:30:49.858Z,82.60
2023-01-30T14:33:23.316Z,82.90
2023-01-30T14:36:06.175Z,83.20
2023-01-30T14:38:37.217Z,82.40
2023-01-30T14:41:04.389Z,82.60
2023-01-30T14:43:43.876Z,82.40
2023-01-30T14:46:20.331Z,82.20
2023-01-30T14:49:05.173Z,82.90
2023-01-30T14:51:47.859Z,83.30
2023-01-30T14:54:15.131Z,83.70
2023-01-30T14:57:04.100Z,83.30
2023-01-30T14:59:47.134Z,84.00
2023-01-30T15:02:15.166Z,83.40
2023-01-30T15:05:01.442Z,83.70
2023-01-30T15:07:51.655Z,83.60
2023-01-30T15:10:41.366Z,83.40
2023-01-30T15:13:21.765Z,83.50
2023-01-30T15:16:10.427Z,83.60
2023-01-30T15:19:03.516Z,85.10
2023-01-30T15:22:08.795Z,85.40
2023-01-30T15:25:03.532Z,84.90
2023-01-30T15:28:01.927Z,85.50
2023-01-30T15:31:01.062Z,85.00
2023-01-30T15:33:32.881Z,84.30
2023-01-30T15:36:00.606Z,84.10
2023-01-30T15:38:31.615Z,83.90
2023-01-30T15:41:04.307Z,83.80
2023-01-30T15:44:15.122Z,83.30
2023-01-30T15:47:03.744Z,83.10
2023-01-30T15:49:44.571Z,82.70
2023-01-30T15:52:17.929Z,82.70
2023-01-30T15:54:53.051Z,82.40
2023-01-30T15:57:35.644Z,82.30
2023-01-30T16:00:06.851Z,82.10
2023-01-30T16:02:43.086Z,81.90
2023-01-30T16:05:16.924Z,81.90
2023-01-30T16:07:47.685Z,81.70
2023-01-30T16:10:24.266Z,81.30
2023-01-30T16:12:55.091Z,81.50
2023-01-30T16:15:36.087Z,81.20
2023-01-30T16:18:13.571Z,81.20
2023-01-30T16:21:00.050Z,81.00
2023-01-30T16:23:41.547Z,81.10
2023-01-30T16:26:21.689Z,81.20
2023-01-30T16:29:03.287Z,81.20
2023-01-30T16:31:37.080Z,81.00
2023-01-30T16:34:17.671Z,82.20
2023-01-30T16:36:47.922Z,82.90
2023-01-30T16:39:35.983Z,83.50
2023-01-30T16:42:20.470Z,84.00
2023-01-30T16:44:48.663Z,84.20
2023-01-30T16:47:31.428Z,84.30
2023-01-30T16:49:58.680Z,84.10
2023-01-30T16:52:37.020Z,83.90
2023-01-30T16:55:08.211Z,84.10
2023-01-30T16:57:54.471Z,83.90
2023-01-30T17:00:33.663Z,83.80
2023-01-30T17:03:05.199Z,83.80
2023-01-30T17:05:40.807Z,84.10
2023-01-30T17:08:32.949Z,84.00
2023-01-30T17:11:01.426Z,84.00
2023-01-30T17:13:36.242Z,83.70
2023-01-30T17:16:33.558Z,83.40
2023-01-30T17:19:01.293Z,83.70
2023-01-30T17:21:31.525Z,84.50
2023-01-30T17:24:04.504Z,84.60
2023-01-30T17:26:34.913Z,84.80
2023-01-30T17:29:02.130Z,84.80
2023-01-30T17:31:29.427Z,84.80
2023-01-30T17:33:56.707Z,84.40
2023-01-30T17:36:27.897Z,83.60
2023-01-30T17:38:59.520Z,83.10
2023-01-30T17:41:30.184Z,82.80
2023-01-30T17:43:57.909Z,81.90
2023-01-30T17:46:35.734Z,82.20
2023-01-30T17:49:03.611Z,81.80
2023-01-30T17:51:30.887Z,82.10
2023-01-30T17:53:58.280Z,82.50
2023-01-30T17:56:38.079Z,82.90
2023-01-30T17:59:13.565Z,83.30
2023-01-30T18:01:42.291Z,83.40
2023-01-30T18:04:09.746Z,83.60
2023-01-30T18:06:39.124Z,83.50
2023-01-30T18:09:06.993Z,83.50
2023-01-30T18:11:34.202Z,83.50
2023-01-30T18:14:01.429Z,83.20
2023-01-30T18:16:33.071Z,83.10
2023-01-30T18:19:05.258Z,82.50
2023-01-30T18:21:35.264Z,82.40
2023-01-30T18:24:02.831Z,82.20
2023-01-30T18:26:30.410Z,81.30
2023-01-30T18:28:57.683Z,81.30
2023-01-30T18:31:26.822Z,80.80
2023-01-30T18:33:55.258Z,80.80
2023-01-30T18:36:23.288Z,80.40
2023-01-30T18:38:50.654Z,80.40
2023-01-30T18:41:23.402Z,80.60
2023-01-30T18:44:02.265Z,80.50
2023-01-30T18:46:30.263Z,81.00
2023-01-30T18:48:58.646Z,81.10
2023-01-30T18:51:33.506Z,81.00
2023-01-30T18:54:01.583Z,80.70
2023-01-30T18:56:31.703Z,80.60
2023-01-30T18:59:04.099Z,80.40
2023-01-30T19:01:42.358Z,80.40
2023-01-30T19:04:11.333Z,80.70
2023-01-30T19:06:40.881Z,80.50
2023-01-30T19:09:13.412Z,80.40
2023-01-30T19:11:59.731Z,80.60
2023-01-30T19:14:29.059Z,80.40
2023-01-30T19:16:56.329Z,80.30
2023-01-30T19:19:23.602Z,80.70
2023-01-30T19:21:52.217Z,82.00
2023-01-30T19:24:27.700Z,82.10
2023-01-30T19:26:55.059Z,81.80
2023-01-30T19:29:24.440Z,81.60
2023-01-30T19:31:51.788Z,81.60
2023-01-30T19:34:30.541Z,81.10
2023-01-30T19:36:57.848Z,81.50
2023-01-30T19:39:25.076Z,81.30
2023-01-30T19:41:52.289Z,81.50
2023-01-30T19:44:19.554Z,80.70
2023-01-30T19:46:47.918Z,80.60
2023-01-30T19:49:16.046Z,80.40
2023-01-30T19:51:43.370Z,80.20
2023-01-30T19:54:14.884Z,80.30
2023-01-30T19:56:47.353Z,81.00
2023-01-30T19:59:16.200Z,82.20
2023-01-30T20:01:43.660Z,83.60
2023-01-30T20:04:10.984Z,84.30
2023-01-30T20:06:42.847Z,84.80
2023-01-30T20:09:16.035Z,85.00
2023-01-30T20:11:46.368Z,84.90
2023-01-30T20:14:13.748Z,84.90
2023-01-30T20:16:41.322Z,84.70
2023-01-30T20:19:15.806Z,84.80
2023-01-30T20:21:44.243Z,84.00
2023-01-30T20:24:15.753Z,84.10
2023-01-30T20:26:46.539Z,84.30
2023-01-30T20:29:17.428Z,84.60
2023-01-30T20:31:44.738Z,84.70
2023-01-30T20:34:14.184Z,84.70
2023-01-30T20:36:41.327Z,84.90
2023-01-30T20:39:08.744Z,84.50
2023-01-30T20:41:37.569Z,84.10
2023-01-30T20:44:07.022Z,83.80
2023-01-30T20:46:40.968Z,83.20
2023-01-30T20:49:16.075Z,83.20
2023-01-30T20:51:45.467Z,82.90
2023-01-30T20:54:13.524Z,82.00
2023-01-30T20:56:46.056Z,81.90
2023-01-30T20:59:18.902Z,81.80
2023-01-30T21:01:48.123Z,80.60
2023-01-30T21:04:17.032Z,80.50
2023-01-30T21:06:46.454Z,80.90
2023-01-30T21:09:19.951Z,80.30
2023-01-30T21:11:47.888Z,80.20
2023-01-30T21:14:15.974Z,80.00
2023-01-30T21:16:43.617Z,80.00
2023-01-30T21:19:16.532Z,80.00
2023-01-30T21:21:54.066Z,80.50
2023-01-30T21:24:27.957Z,79.90
2023-01-30T21:26:56.173Z,79.80
2023-01-30T21:29:26.624Z,80.40
2023-01-30T21:31:55.604Z,80.90
2023-01-30T21:34:23.241Z,81.60
2023-01-30T21:37:09.536Z,81.90
2023-01-30T21:40:00.287Z,81.50
2023-01-30T21:42:46.215Z,81.50
2023-01-30T21:45:15.515Z,80.60
2023-01-30T21:47:42.875Z,78.60
2023-01-30T21:50:10.773Z,79.20
2023-01-30T21:52:38.198Z,78.80
2023-01-30T21:55:05.724Z,79.20
2023-01-30T21:57:33.012Z,79.20
2023-01-30T22:00:08.511Z,78.90
2023-01-30T22:02:35.774Z,78.20
2023-01-30T22:05:03.993Z,78.00
2023-01-30T22:07:32.215Z,78.40
2023-01-30T22:10:02.221Z,78.90
2023-01-30T22:12:31.584Z,79.20
2023-01-30T22:14:58.876Z,80.00
2023-01-30T22:17:26.159Z,80.60
2023-01-30T22:19:53.999Z,80.90
2023-01-30T22:22:47.132Z,81.30
2023-01-30T22:25:15.593Z,82.10
2023-01-30T22:27:46.763Z,82.80
2023-01-30T22:30:15.214Z,83.10
2023-01-30T22:32:42.925Z,82.90
2023-01-30T22:35:10.564Z,82.90
2023-01-30T22:37:38.402Z,83.10
2023-01-30T22:40:06.115Z,82.90
2023-01-30T22:42:33.340Z,83.00
2023-01-30T22:45:00.683Z,82.80
2023-01-30T22:47:27.854Z,82.30
2023-01-30T22:49:55.108Z,82.80
2023-01-30T22:52:22.346Z,82.50
2023-01-30T22:54:49.580Z,82.30
2023-01-30T22:57:16.783Z,81.70
2023-01-30T22:59:44.001Z,81.10
2023-01-30T23:02:12.115Z,81.40
2023-01-30T23:04:39.468Z,80.20
2023-01-30T23:07:06.786Z,80.80
2023-01-30T23:09:34.153Z,80.90
2023-01-30T23:12:20.043Z,82.00
2023-01-30T23:14:47.257Z,82.00
2023-01-30T23:17:33.235Z,81.80
2023-01-30T23:20:00.573Z,81.90
2023-01-30T23:22:27.848Z,81.80
2023-01-30T23:24:55.070Z,82.10
2023-01-30T23:27:22.397Z,82.00
2023-01-30T23:29:50.775Z,82.20
2023-01-30T23:32:20.916Z,81.30
2023-01-30T23:34:48.514Z,81.10
2023-01-30T23:38:30.421Z,81.00
2023-01-30T23:41:09.897Z,80.80
2023-01-30T23:43:38.906Z,80.50
2023-01-30T23:46:19.645Z,80.50
2023-01-30T23:48:48.750Z,80.70
2023-01-30T23:51:17.244Z,80.90
2023-01-30T23:53:45.234Z,80.40
2023-01-30T23:56:13.164Z,80.40
2023-01-30T23:58:42.034Z,80.10
